Blakely Island, Washington
Current Conditions -  °F | °C
As of 12:53 AM on Tuesday 21 Oct 2014 (Local Time) from KFHR Reporting Station
Light Rain Light Rain  
Wind Chill: 53°   Ceiling: 1400
Heat Index: 53°   Visibility: 10mi
Dew Point: 52°   Wind: 5mph
Humidity: 96%   Direction: 110°ESE
Pressure: 29.77"   Gusts: NA
Location:  48.56°N, 122.8°W
Report Text: KFHR 210753Z AUTO 11004KT 10SM -RA BKN014 OVC070 12/11 A2977 RMK AO2 RAB01 SLP079 P0000 T01170111 401670100
Loading
Personal Weather Stations






























Interactive Weather Map
Tropical Storm Tracking
New forecast layout! Learn more

10-Day Weather Forecast

Advertisements
Track Severe Weather on mobile